Rockingham, Vermont
Current Conditions -  °F | °C
As of 8:54 AM on Friday 31 Oct 2014 (Local Time) from KVSF Reporting Station
Overcast Overcast  
Wind Chill: 41°   Ceiling: 4600
Heat Index: 41°   Visibility: 10mi
Dew Point: 37°   Wind: 0mph
Humidity: 86%   Direction: NA
Pressure: 30.06"   Gusts: NA
Location:  43.1826°N, 72.5005°W
Report Text: KVSF 311254Z AUTO 00000KT 10SM OVC046 05/03 A3006 RMK AO2 SLP184 T00500028
Loading
Personal Weather Stations






























Interactive Weather Map
Tropical Storm Tracking
New forecast layout! Learn more

10-Day Weather Forecast

Advertisements
Track Severe Weather on mobile